Terminal Aerodrome Forecast
Issued by NWS Bismarck, ND

Home | Current Version | Previous Version | Graphics & Text | Print | Product List | Glossary On
Versions: 1 2 3 4 5 6 7 8 9 10 11 12 13 14 15 16 17
000
FTUS43 KBIS 192300
TAFBIS
TAF
KBIS 192329Z 2000/2024 30007KT P6SM SKC
     FM200300 17005KT P6SM SKC
     FM201700 21011KT P6SM FEW250
     FM202100 25014KT P6SM BKN090 BKN250=

USA.gov is the U.S. government's official web portal to all federal, state and local government web resources and services.